Mon, 19 Apr 2021 14:02:10 UTC

Information for RPM brotli-1.0.7-9.fc32.aarch64.rpm

ID19841045
Namebrotli
Version1.0.7
Release9.fc32
Epoch
Archaarch64
SummaryLossless compression algorithm
DescriptionBrotli is a generic-purpose lossless compression algorithm that compresses data using a combination of a modern variant of the LZ77 algorithm, Huffman coding and 2nd order context modeling, with a compression ratio comparable to the best currently available general-purpose compression methods. It is similar in speed with deflate but offers more dense compression.
Build Time2019-12-10 23:30:41 GMT
Size327,693
93955596e1aac09670b6e421909b15f1
LicenseMIT
Buildrootf32-build-18419387-1313909
Provides
brotli = 1.0.7-9.fc32
brotli(aarch-64) = 1.0.7-9.fc32
Obsoletes No Obsoletes
Conflicts No Conflicts
Requires
ld-linux-aarch64.so.1()(64bit)
ld-linux-aarch64.so.1(GLIBC_2.17)(64bit)
libbrotli(aarch-64) = 1.0.7-9.fc32
libc.so.6()(64bit)
libc.so.6(GLIBC_2.17)(64bit)
libm.so.6()(64bit)
libm.so.6(GLIBC_2.29)(64bit)
rpmlib(CompressedFileNames) <= 3.0.4-1
rpmlib(FileDigests) <= 4.6.0-1
rpmlib(PayloadFilesHavePrefix) <= 4.0-1
rpmlib(PayloadIsZstd) <= 5.4.18-1
rtld(GNU_HASH)
Recommends No Recommends
Suggests No Suggests
Supplements No Supplements
Enhances No Enhances
Files
1 through 4 of 4
Name ascending sort Size
/usr/bin/brotli728,008
/usr/lib/.build-id0
/usr/lib/.build-id/0a0
/usr/lib/.build-id/0a/dd2e1cdd10b81fe54eb9b335de9ce7b2f1c2a726
Component of
Page:
<<< 51 through 100 of 1671 >>>
Buildroot descending sort Created State
f32-build-19353129-1349460 2020-02-01 10:16:30 expired
f32-build-19353103-1349451 2020-02-01 09:58:39 expired
f32-build-19352932-1349439 2020-02-01 09:05:52 expired
f32-build-19352027-1349245 2020-01-31 22:57:06 expired
f32-build-19351641-1349157 2020-01-31 21:44:14 expired
f32-build-19350994-1349023 2020-01-31 19:19:45 expired
f32-build-19350978-1349023 2020-01-31 19:16:28 expired
f32-build-19350840-1349005 2020-01-31 18:43:29 expired
f32-build-19349343-1348553 2020-01-31 13:58:44 expired
f32-build-19348855-1348431 2020-01-31 12:29:56 expired
f32-build-19348792-1348416 2020-01-31 12:21:13 expired
f32-build-19348785-1348416 2020-01-31 12:20:57 expired
f32-build-19348777-1348416 2020-01-31 12:20:30 expired
f32-build-19348529-1348348 2020-01-31 11:45:09 expired
f32-build-19348519-1348348 2020-01-31 11:44:00 expired
f32-build-19348444-1348332 2020-01-31 11:34:40 expired
f32-build-19348309-1348290 2020-01-31 11:06:14 expired
f32-build-19347897-1348235 2020-01-31 09:47:04 expired
f32-build-19347800-1348230 2020-01-31 09:36:48 expired
f32-build-19347550-1348212 2020-01-31 09:21:38 expired
f32-build-19347139-1348173 2020-01-31 08:57:08 expired
f32-build-19346934-1348161 2020-01-31 08:47:30 expired
f32-build-19346522-1348161 2020-01-31 08:35:25 expired
f32-build-19346452-1348161 2020-01-31 08:33:21 expired
f32-build-19345942-1348146 2020-01-31 08:16:03 expired
f32-build-19345826-1348146 2020-01-31 08:12:37 expired
f32-build-19345627-1348146 2020-01-31 08:02:03 expired
f32-build-19345517-1348146 2020-01-31 07:57:55 expired
f32-build-19344701-1348121 2020-01-31 07:10:23 expired
f32-build-19344598-1348121 2020-01-31 07:03:11 expired
f32-build-19344551-1348113 2020-01-31 06:59:40 expired
f32-build-19344284-1348084 2020-01-31 06:38:28 expired
f32-build-19344265-1348084 2020-01-31 06:37:37 expired
f32-build-19343961-1348084 2020-01-31 06:15:41 expired
f32-build-19343947-1348084 2020-01-31 06:15:04 expired
f32-build-19343511-1348080 2020-01-31 05:51:23 expired
f32-build-19343396-1348080 2020-01-31 05:46:17 expired
f32-build-19343209-1348080 2020-01-31 05:38:37 expired
f32-build-19342244-1348056 2020-01-31 05:03:38 expired
f32-build-19341506-1348046 2020-01-31 04:39:08 expired
f32-build-19341478-1348046 2020-01-31 04:38:17 expired
f32-build-19340787-1348024 2020-01-31 04:07:56 expired
f32-build-19340332-1348004 2020-01-31 03:49:23 expired
f32-build-19340272-1348004 2020-01-31 03:46:57 expired
f32-build-19339993-1348002 2020-01-31 03:35:25 expired
f32-build-19339731-1348002 2020-01-31 03:20:33 expired
f32-build-19339600-1348002 2020-01-31 03:16:15 expired
f32-build-19339404-1348002 2020-01-31 03:09:31 expired
f32-build-19339367-1348002 2020-01-31 03:08:09 expired
f32-build-19338728-1348002 2020-01-31 02:49:31 expired